Stockholm, South Dakota
Current Conditions -  °F | °C
As of 4:53 AM on Thursday 18 Dec 2014 (Local Time) from KATY Reporting Station
Overcast Overcast  
Wind Chill:   Ceiling: 6000
Heat Index: 14°   Visibility: 10mi
Dew Point:   Wind: 6mph
Humidity: 80%   Direction: 140°SE
Pressure: 30.17"   Gusts: NA
Location:  45.1°N, 96.8°W
Report Text: KATY 181053Z AUTO 14005KT 10SM OVC060 M10/M13 A3017 RMK AO2 SLP252 T11001128
Loading
Personal Weather Stations






























Interactive Weather Map New forecast layout! Learn more

10-Day Weather Forecast

Advertisements
Track Severe Weather on mobile